Time;durP1;ratioP1;P1;durP2;ratioP2;P2;SDS_P1;SDS_P2;PMS_P1;PMS_P2;Temp;Humidity;BMP_temperature;BMP_pressure;BME280_temperature;BME280_humidity;BME280_pressure;Samples;Min_cycle;Max_cycle;Signal;HPM_P1;HPM_P2
2022/12/16 00:00:28;;;;;;;35.35;23.08;;;;;;;;;;5094345;27;20052;-42
2022/12/16 00:02:54;;;;;;;40.78;25.42;;;;;;;;;;5093727;28;20131;-42
2022/12/16 00:05:20;;;;;;;37.35;24.27;;;;;;;;;;5094511;27;20031;-42
2022/12/16 00:07:47;;;;;;;40.92;25.00;;;;;;;;;;5093836;27;20138;-42
2022/12/16 00:10:13;;;;;;;32.83;22.38;;;;;;;;;;5094009;27;20046;-44
2022/12/16 00:12:39;;;;;;;34.53;22.73;;;;;;;;;;5093705;28;20515;-42
2022/12/16 00:15:05;;;;;;;36.25;24.02;;;;;;;;;;5092613;28;20084;-44
2022/12/16 00:17:31;;;;;;;34.35;22.52;;;;;;;;;;5094263;27;20052;-41
2022/12/16 00:19:57;;;;;;;37.67;23.42;;;;;;;;;;5093896;28;20108;-42
2022/12/16 00:22:23;;;;;;;39.40;20.83;;;;;;;;;;5094118;27;20056;-43
2022/12/16 00:24:49;;;;;;;31.55;19.50;;;;;;;;;;5094395;27;20036;-43
2022/12/16 00:27:16;;;;;;;29.27;19.35;;;;;;;;;;5095369;27;20710;-42
2022/12/16 00:29:42;;;;;;;31.73;19.77;;;;;;;;;;5093428;27;20035;-43
2022/12/16 00:32:08;;;;;;;29.55;18.05;;;;;;;;;;5093854;27;20043;-42
2022/12/16 00:34:34;;;;;;;29.23;17.60;;;;;;;;;;5093009;28;20048;-41
2022/12/16 00:37:00;;;;;;;31.40;20.98;;;;;;;;;;5092635;28;20032;-42
2022/12/16 00:39:26;;;;;;;27.83;17.40;;;;;;;;;;5092249;27;20059;-42
2022/12/16 00:41:52;;;;;;;30.80;19.13;;;;;;;;;;5093407;28;20075;-42
2022/12/16 00:44:18;;;;;;;30.33;17.63;;;;;;;;;;5093850;27;20040;-43
2022/12/16 00:46:45;;;;;;;24.40;17.08;;;;;;;;;;5093439;27;20054;-42
2022/12/16 00:49:11;;;;;;;21.55;13.10;;;;;;;;;;5093284;27;20042;-42
2022/12/16 00:51:37;;;;;;;19.45;11.32;;;;;;;;;;5093930;27;20135;-41
2022/12/16 00:54:03;;;;;;;17.77;10.10;;;;;;;;;;5094072;28;20101;-42
2022/12/16 00:56:29;;;;;;;15.73;8.88;;;;;;;;;;5096682;27;20087;-41
2022/12/16 00:58:55;;;;;;;19.10;8.55;;;;;;;;;;5094283;27;20046;-41
2022/12/16 01:01:21;;;;;;;15.40;8.50;;;;;;;;;;5094558;27;20684;-41
2022/12/16 01:03:48;;;;;;;14.98;7.18;;;;;;;;;;5094264;27;20046;-43
2022/12/16 01:06:15;;;;;;;11.18;7.13;;;;;;;;;;5094853;27;20044;-43
2022/12/16 01:08:47;;;;;;;16.75;6.80;;;;;;;;;;5094196;28;20507;-43
2022/12/16 01:11:14;;;;;;;14.35;6.78;;;;;;;;;;5094665;27;20499;-43
2022/12/16 01:13:41;;;;;;;12.13;6.03;;;;;;;;;;5093271;28;20050;-42
2022/12/16 01:16:07;;;;;;;16.33;6.95;;;;;;;;;;5093315;28;20050;-43
2022/12/16 01:18:33;;;;;;;11.00;6.15;;;;;;;;;;5092722;28;20074;-42
2022/12/16 01:21:04;;;;;;;15.13;5.55;;;-0.40;99.90;;;;;;5093186;28;20047;-41
2022/12/16 01:23:30;;;;;;;14.27;6.70;;;;;;;;;;5093568;28;20043;-42
2022/12/16 01:25:58;;;;;;;16.70;5.95;;;;;;;;;;5093839;28;20307;-41
2022/12/16 01:28:25;;;;;;;13.68;6.22;;;;;;;;;;5092941;28;20051;-42
2022/12/16 01:31:00;;;;;;;11.13;5.22;;;0.00;99.90;;;;;;5092459;28;20043;-41
2022/12/16 01:33:31;;;;;;;14.65;6.13;;;0.30;99.90;;;;;;5094290;28;20073;-44
2022/12/16 01:36:04;;;;;;;16.88;6.20;;;0.20;99.90;;;;;;5074187;28;20398;-43
2022/12/16 01:38:30;;;;;;;11.52;5.43;;;;;;;;;;5092891;28;20549;-42
2022/12/16 01:40:57;;;;;;;12.98;6.05;;;;;;;;;;5092298;28;20214;-41
2022/12/16 01:43:27;;;;;;;16.60;5.97;;;;;;;;;;5092784;28;20042;-43
2022/12/16 01:45:56;;;;;;;16.80;5.80;;;;;;;;;;5091750;28;20150;-47
2022/12/16 01:48:33;;;;;;;12.68;5.53;;;;;;;;;;5092590;28;20098;-47
2022/12/16 01:51:22;;;;;;;11.57;5.18;;;0.50;99.90;;;;;;5093705;28;20679;-41
2022/12/16 01:53:53;;;;;;;15.52;5.80;;;0.70;99.90;;;;;;5085077;28;20527;-45
2022/12/16 01:56:22;;;;;;;13.93;5.50;;;0.40;99.90;;;;;;5092611;28;20055;-44
2022/12/16 01:58:49;;;;;;;13.95;5.72;;;;;;;;;;5092300;28;20028;-42
2022/12/16 02:01:16;;;;;;;21.20;7.60;;;;;;;;;;5090367;28;20040;-43
2022/12/16 02:03:42;;;;;;;13.30;5.60;;;;;;;;;;5093990;28;20040;-44
2022/12/16 02:06:09;;;;;;;14.00;6.43;;;;;;;;;;5094045;28;20532;-42
2022/12/16 02:08:35;;;;;;;13.18;5.25;;;;;;;;;;5093148;28;20063;-44
2022/12/16 02:11:01;;;;;;;13.88;6.07;;;;;;;;;;5093644;28;20043;-44
2022/12/16 02:13:50;;;;;;;12.80;5.00;;;;;;;;;;5093377;28;20652;-45
2022/12/16 02:16:35;;;;;;;11.75;6.10;;;;;;;;;;5074168;28;20051;-42
2022/12/16 02:19:21;;;;;;;11.40;5.30;;;0.60;99.90;;;;;;5094317;28;20050;-43
2022/12/16 02:21:56;;;;;;;13.95;5.28;;;;;;;;;;5092596;28;20123;-42
2022/12/16 02:24:37;;;;;;;13.30;6.38;;;;;;;;;;5095154;28;20042;-42
2022/12/16 02:27:19;;;;;;;15.75;5.50;;;;;;;;;;5094304;28;20047;-45
2022/12/16 02:30:06;;;;;;;13.00;5.82;;;0.40;99.90;;;;;;5093656;28;20135;-42
2022/12/16 02:32:51;;;;;;;12.88;5.68;;;0.60;99.90;;;;;;5093150;28;20047;-41
2022/12/16 02:35:41;;;;;;;18.05;6.30;;;;;;;;;;5092332;28;20044;-42
2022/12/16 02:38:07;;;;;;;14.07;6.22;;;;;;;;;;5092194;28;20526;-43
2022/12/16 02:40:44;;;;;;;12.95;6.45;;;0.50;99.90;;;;;;5091726;28;20067;-42
2022/12/16 02:43:33;;;;;;;12.60;6.18;;;;;;;;;;5092613;27;20035;-42
2022/12/16 02:46:00;;;;;;;13.55;5.38;;;0.60;99.90;;;;;;5075204;27;20690;-43
2022/12/16 02:48:26;;;;;;;11.98;5.85;;;;;;;;;;5095815;27;20047;-42
2022/12/16 02:50:53;;;;;;;15.45;6.50;;;;;;;;;;5094342;27;20575;-42
2022/12/16 02:53:19;;;;;;;13.90;6.32;;;;;;;;;;5095129;28;20217;-42
2022/12/16 02:55:51;;;;;;;9.98;5.47;;;;;;;;;;5097489;27;20049;-44
2022/12/16 02:58:26;;;;;;;10.88;6.18;;;;;;;;;;5096597;27;20105;-42
2022/12/16 03:01:17;;;;;;;12.20;6.22;;;;;;;;;;5095388;27;20047;-43
2022/12/16 03:03:43;;;;;;;10.32;5.38;;;;;;;;;;5094850;27;20108;-41
2022/12/16 03:06:13;;;;;;;11.05;5.20;;;0.60;99.90;;;;;;5095259;27;20584;-42
2022/12/16 03:08:40;;;;;;;10.75;5.43;;;;;;;;;;5093802;27;20055;-42
2022/12/16 03:11:09;;;;;;;12.75;5.32;;;;;;;;;;5095667;27;20088;-43
2022/12/16 03:13:42;;;;;;;10.52;5.32;;;0.50;99.90;;;;;;5095625;27;20067;-42
2022/12/16 03:16:09;;;;;;;12.70;5.78;;;;;;;;;;5095587;27;20052;-46
2022/12/16 03:18:38;;;;;;;9.60;5.35;;;;;;;;;;5094779;28;20054;-46
2022/12/16 03:21:06;;;;;;;10.38;5.68;;;0.50;99.90;;;;;;5095897;28;20039;-41
2022/12/16 03:23:45;;;;;;;11.05;5.43;;;;;;;;;;5095523;27;20039;-43
2022/12/16 03:26:23;;;;;;;11.88;5.07;;;;;;;;;;5096960;27;20396;-42
2022/12/16 03:28:55;;;;;;;7.95;4.78;;;;;;;;;;5095549;27;20035;-42
2022/12/16 03:31:35;;;;;;;9.98;5.50;;;;;;;;;;5095215;27;20048;-41
2022/12/16 03:34:07;;;;;;;9.93;5.80;;;;;;;;;;5096780;28;20143;-41
2022/12/16 03:36:34;;;;;;;12.57;5.72;;;;;;;;;;5096267;28;20067;-43
2022/12/16 03:39:03;;;;;;;8.23;4.97;;;0.40;99.90;;;;;;5096317;28;20143;-42
2022/12/16 03:41:30;;;;;;;7.28;4.63;;;;;;;;;;5095754;27;20038;-42
2022/12/16 03:43:56;;;;;;;9.63;4.95;;;;;;;;;;5093645;27;20082;-42
2022/12/16 03:46:22;;;;;;;8.88;4.97;;;;;;;;;;5096596;27;20087;-43
2022/12/16 03:48:49;;;;;;;13.57;5.18;;;;;;;;;;5095933;27;20051;-43
2022/12/16 03:51:16;;;;;;;9.30;5.78;;;;;;;;;;5096421;27;20043;-41
2022/12/16 03:53:42;;;;;;;10.13;5.57;;;;;;;;;;5093493;27;20044;-43
2022/12/16 03:56:08;;;;;;;9.90;4.85;;;;;;;;;;5093990;27;20053;-42
2022/12/16 03:58:36;;;;;;;11.20;6.10;;;;;;;;;;5094792;27;20130;-43
2022/12/16 04:01:02;;;;;;;11.30;5.53;;;;;;;;;;5094678;27;20123;-42
2022/12/16 04:03:28;;;;;;;10.10;5.20;;;;;;;;;;5093719;27;20219;-42
2022/12/16 04:05:54;;;;;;;11.10;6.38;;;;;;;;;;5094381;27;20123;-43
2022/12/16 04:08:20;;;;;;;12.52;5.65;;;;;;;;;;5093239;27;20044;-41
2022/12/16 04:24:47;;;;;;;14.85;7.93;;;;;;;;;;5093154;27;20446;-44
2022/12/16 04:27:26;;;;;;;17.70;9.93;;;;;;;;;;5094320;27;20102;-41
